sensor_id;sensor_type;location;lat;lon;timestamp;temperature;humidity
71177;DHT22;58877;51.992;4.504;2024-01-06T00:01:41;7.38;82.51
71177;DHT22;58877;51.992;4.504;2024-01-06T00:04:06;7.34;82.57
71177;DHT22;58877;51.992;4.504;2024-01-06T00:06:32;7.20;82.62
71177;DHT22;58877;51.992;4.504;2024-01-06T00:08:58;7.23;83.30
71177;DHT22;58877;51.992;4.504;2024-01-06T00:11:23;7.31;82.94
71177;DHT22;58877;51.992;4.504;2024-01-06T00:13:51;7.26;82.96
71177;DHT22;58877;51.992;4.504;2024-01-06T00:16:17;7.10;83.12
71177;DHT22;58877;51.992;4.504;2024-01-06T00:18:44;7.16;83.57
71177;DHT22;58877;51.992;4.504;2024-01-06T00:21:10;7.14;83.43
71177;DHT22;58877;51.992;4.504;2024-01-06T00:23:36;7.13;83.32
71177;DHT22;58877;51.992;4.504;2024-01-06T00:26:02;7.10;83.62
71177;DHT22;58877;51.992;4.504;2024-01-06T00:28:28;7.18;83.53
71177;DHT22;58877;51.992;4.504;2024-01-06T00:30:53;7.16;83.30
71177;DHT22;58877;51.992;4.504;2024-01-06T00:33:20;7.10;83.52
71177;DHT22;58877;51.992;4.504;2024-01-06T00:35:45;7.06;83.53
71177;DHT22;58877;51.992;4.504;2024-01-06T00:38:11;7.10;83.49
71177;DHT22;58877;51.992;4.504;2024-01-06T00:40:37;7.00;83.44
71177;DHT22;58877;51.992;4.504;2024-01-06T00:43:03;6.99;83.69
71177;DHT22;58877;51.992;4.504;2024-01-06T00:45:29;7.03;83.32
71177;DHT22;58877;51.992;4.504;2024-01-06T00:47:56;7.08;83.30
71177;DHT22;58877;51.992;4.504;2024-01-06T00:50:21;7.10;82.85
71177;DHT22;58877;51.992;4.504;2024-01-06T00:52:47;7.14;83.27
71177;DHT22;58877;51.992;4.504;2024-01-06T00:55:12;7.16;82.82
71177;DHT22;58877;51.992;4.504;2024-01-06T00:57:38;7.13;82.43
71177;DHT22;58877;51.992;4.504;2024-01-06T01:00:05;7.17;82.62
71177;DHT22;58877;51.992;4.504;2024-01-06T01:02:31;7.16;82.68
71177;DHT22;58877;51.992;4.504;2024-01-06T01:04:57;7.07;82.80
71177;DHT22;58877;51.992;4.504;2024-01-06T01:07:24;7.16;82.80
71177;DHT22;58877;51.992;4.504;2024-01-06T01:09:50;7.10;82.15
71177;DHT22;58877;51.992;4.504;2024-01-06T01:12:15;7.07;82.72
71177;DHT22;58877;51.992;4.504;2024-01-06T01:14:41;7.06;82.74
71177;DHT22;58877;51.992;4.504;2024-01-06T01:17:06;7.08;82.97
71177;DHT22;58877;51.992;4.504;2024-01-06T01:19:32;7.10;82.56
71177;DHT22;58877;51.992;4.504;2024-01-06T01:21:58;6.95;82.72
71177;DHT22;58877;51.992;4.504;2024-01-06T01:24:23;6.93;83.05
71177;DHT22;58877;51.992;4.504;2024-01-06T01:26:50;6.89;82.67
71177;DHT22;58877;51.992;4.504;2024-01-06T01:29:16;6.90;82.94
71177;DHT22;58877;51.992;4.504;2024-01-06T01:31:42;6.89;83.48
71177;DHT22;58877;51.992;4.504;2024-01-06T01:34:08;7.00;82.93
71177;DHT22;58877;51.992;4.504;2024-01-06T01:36:33;6.97;82.17
71177;DHT22;58877;51.992;4.504;2024-01-06T01:39:02;6.93;82.23
71177;DHT22;58877;51.992;4.504;2024-01-06T01:41:27;6.92;82.08
71177;DHT22;58877;51.992;4.504;2024-01-06T01:43:53;6.85;82.33
71177;DHT22;58877;51.992;4.504;2024-01-06T01:46:30;6.93;82.69
71177;DHT22;58877;51.992;4.504;2024-01-06T01:48:57;6.99;82.52
71177;DHT22;58877;51.992;4.504;2024-01-06T01:51:34;6.96;81.96
71177;DHT22;58877;51.992;4.504;2024-01-06T01:54:02;6.97;81.93
71177;DHT22;58877;51.992;4.504;2024-01-06T01:56:31;7.04;81.90
71177;DHT22;58877;51.992;4.504;2024-01-06T01:59:06;6.97;81.65
71177;DHT22;58877;51.992;4.504;2024-01-06T02:01:33;6.79;81.33
71177;DHT22;58877;51.992;4.504;2024-01-06T02:03:59;6.68;81.68
71177;DHT22;58877;51.992;4.504;2024-01-06T02:06:24;6.71;81.55
71177;DHT22;58877;51.992;4.504;2024-01-06T02:08:50;6.76;81.30
71177;DHT22;58877;51.992;4.504;2024-01-06T02:11:16;6.71;81.41
71177;DHT22;58877;51.992;4.504;2024-01-06T02:13:43;6.53;80.82
71177;DHT22;58877;51.992;4.504;2024-01-06T02:16:09;6.31;80.84
71177;DHT22;58877;51.992;4.504;2024-01-06T02:18:35;6.21;81.17
71177;DHT22;58877;51.992;4.504;2024-01-06T02:21:06;6.22;81.34
71177;DHT22;58877;51.992;4.504;2024-01-06T02:23:36;6.22;81.17
71177;DHT22;58877;51.992;4.504;2024-01-06T02:26:05;6.14;81.08
71177;DHT22;58877;51.992;4.504;2024-01-06T02:28:31;6.17;80.99
71177;DHT22;58877;51.992;4.504;2024-01-06T02:30:56;6.22;80.80
71177;DHT22;58877;51.992;4.504;2024-01-06T02:33:22;6.17;81.36
71177;DHT22;58877;51.992;4.504;2024-01-06T02:35:53;6.12;81.23
71177;DHT22;58877;51.992;4.504;2024-01-06T02:38:19;6.25;81.17
71177;DHT22;58877;51.992;4.504;2024-01-06T02:40:44;6.18;81.33
71177;DHT22;58877;51.992;4.504;2024-01-06T02:43:23;6.32;81.49
71177;DHT22;58877;51.992;4.504;2024-01-06T02:45:49;6.36;81.21
71177;DHT22;58877;51.992;4.504;2024-01-06T02:48:20;6.39;80.99
71177;DHT22;58877;51.992;4.504;2024-01-06T02:50:46;6.36;80.97
71177;DHT22;58877;51.992;4.504;2024-01-06T02:53:12;6.26;80.76
71177;DHT22;58877;51.992;4.504;2024-01-06T02:55:38;6.25;81.26
71177;DHT22;58877;51.992;4.504;2024-01-06T02:58:07;6.26;81.39
71177;DHT22;58877;51.992;4.504;2024-01-06T03:00:33;6.38;81.29
71177;DHT22;58877;51.992;4.504;2024-01-06T03:02:58;6.33;80.91
71177;DHT22;58877;51.992;4.504;2024-01-06T03:05:24;6.20;81.03
71177;DHT22;58877;51.992;4.504;2024-01-06T03:07:50;6.15;81.72
71177;DHT22;58877;51.992;4.504;2024-01-06T03:10:15;6.29;81.47
71177;DHT22;58877;51.992;4.504;2024-01-06T03:12:41;6.42;81.45
71177;DHT22;58877;51.992;4.504;2024-01-06T03:15:07;6.41;81.23
71177;DHT22;58877;51.992;4.504;2024-01-06T03:17:33;6.39;81.14
71177;DHT22;58877;51.992;4.504;2024-01-06T03:19:59;6.25;82.15
71177;DHT22;58877;51.992;4.504;2024-01-06T03:22:24;6.28;81.69
71177;DHT22;58877;51.992;4.504;2024-01-06T03:24:50;6.21;82.46
71177;DHT22;58877;51.992;4.504;2024-01-06T03:27:16;6.43;82.12
71177;DHT22;58877;51.992;4.504;2024-01-06T03:29:41;6.35;81.68
71177;DHT22;58877;51.992;4.504;2024-01-06T03:32:07;6.33;81.77
71177;DHT22;58877;51.992;4.504;2024-01-06T03:34:32;6.21;81.32
71177;DHT22;58877;51.992;4.504;2024-01-06T03:36:58;6.25;81.55
71177;DHT22;58877;51.992;4.504;2024-01-06T03:39:24;6.35;81.48
71177;DHT22;58877;51.992;4.504;2024-01-06T03:41:49;6.38;81.20
71177;DHT22;58877;51.992;4.504;2024-01-06T03:44:15;6.31;80.71
71177;DHT22;58877;51.992;4.504;2024-01-06T03:46:50;6.29;81.36
71177;DHT22;58877;51.992;4.504;2024-01-06T03:49:16;6.29;81.18
71177;DHT22;58877;51.992;4.504;2024-01-06T03:51:44;6.21;80.85
71177;DHT22;58877;51.992;4.504;2024-01-06T03:54:10;6.22;80.98
71177;DHT22;58877;51.992;4.504;2024-01-06T03:56:35;6.32;80.85
71177;DHT22;58877;51.992;4.504;2024-01-06T03:59:01;6.35;80.97
71177;DHT22;58877;51.992;4.504;2024-01-06T04:01:27;6.42;80.80
71177;DHT22;58877;51.992;4.504;2024-01-06T04:03:54;6.41;80.38
71177;DHT22;58877;51.992;4.504;2024-01-06T04:06:19;6.41;80.81
71177;DHT22;58877;51.992;4.504;2024-01-06T04:08:52;6.36;80.13
71177;DHT22;58877;51.992;4.504;2024-01-06T04:11:23;6.24;80.71
71177;DHT22;58877;51.992;4.504;2024-01-06T04:13:48;6.36;80.64
71177;DHT22;58877;51.992;4.504;2024-01-06T04:16:14;6.46;80.23
71177;DHT22;58877;51.992;4.504;2024-01-06T04:18:43;6.45;80.33
71177;DHT22;58877;51.992;4.504;2024-01-06T04:21:09;6.22;80.52
71177;DHT22;58877;51.992;4.504;2024-01-06T04:23:34;6.33;80.38
71177;DHT22;58877;51.992;4.504;2024-01-06T04:26:03;6.18;80.40
71177;DHT22;58877;51.992;4.504;2024-01-06T04:28:30;6.18;80.53
71177;DHT22;58877;51.992;4.504;2024-01-06T04:30:56;6.22;80.64
71177;DHT22;58877;51.992;4.504;2024-01-06T04:33:22;6.14;80.64
71177;DHT22;58877;51.992;4.504;2024-01-06T04:35:48;6.15;80.82
71177;DHT22;58877;51.992;4.504;2024-01-06T04:38:14;6.22;80.98
71177;DHT22;58877;51.992;4.504;2024-01-06T04:40:40;6.33;80.58
71177;DHT22;58877;51.992;4.504;2024-01-06T04:43:06;6.26;80.61
71177;DHT22;58877;51.992;4.504;2024-01-06T04:45:32;6.32;80.96
71177;DHT22;58877;51.992;4.504;2024-01-06T04:47:58;6.31;81.25
71177;DHT22;58877;51.992;4.504;2024-01-06T04:50:23;6.38;81.37
71177;DHT22;58877;51.992;4.504;2024-01-06T04:52:50;6.39;80.67
71177;DHT22;58877;51.992;4.504;2024-01-06T04:55:16;6.20;80.99
71177;DHT22;58877;51.992;4.504;2024-01-06T04:57:44;6.07;81.30
71177;DHT22;58877;51.992;4.504;2024-01-06T05:00:11;6.07;81.90
71177;DHT22;58877;51.992;4.504;2024-01-06T05:02:37;5.97;81.77
71177;DHT22;58877;51.992;4.504;2024-01-06T05:05:06;6.00;82.08
71177;DHT22;58877;51.992;4.504;2024-01-06T05:07:32;5.93;81.82
71177;DHT22;58877;51.992;4.504;2024-01-06T05:09:58;5.83;82.35
71177;DHT22;58877;51.992;4.504;2024-01-06T05:12:26;5.94;82.42
71177;DHT22;58877;51.992;4.504;2024-01-06T05:14:52;5.83;82.46
71177;DHT22;58877;51.992;4.504;2024-01-06T05:17:17;5.80;82.41
71177;DHT22;58877;51.992;4.504;2024-01-06T05:19:43;5.81;82.50
71177;DHT22;58877;51.992;4.504;2024-01-06T05:22:09;5.78;82.61
71177;DHT22;58877;51.992;4.504;2024-01-06T05:24:35;5.83;82.23
71177;DHT22;58877;51.992;4.504;2024-01-06T05:27:01;5.87;82.20
71177;DHT22;58877;51.992;4.504;2024-01-06T05:29:26;5.87;82.50
71177;DHT22;58877;51.992;4.504;2024-01-06T05:31:52;5.95;82.49
71177;DHT22;58877;51.992;4.504;2024-01-06T05:34:18;5.91;82.57
71177;DHT22;58877;51.992;4.504;2024-01-06T05:36:44;6.00;81.97
71177;DHT22;58877;51.992;4.504;2024-01-06T05:39:10;5.95;81.82
71177;DHT22;58877;51.992;4.504;2024-01-06T05:41:39;5.83;82.06
71177;DHT22;58877;51.992;4.504;2024-01-06T05:44:06;5.86;82.09
71177;DHT22;58877;51.992;4.504;2024-01-06T05:46:34;5.95;82.03
71177;DHT22;58877;51.992;4.504;2024-01-06T05:48:59;5.93;81.92
71177;DHT22;58877;51.992;4.504;2024-01-06T05:51:25;5.70;82.03
71177;DHT22;58877;51.992;4.504;2024-01-06T05:53:51;5.60;82.58
71177;DHT22;58877;51.992;4.504;2024-01-06T05:56:26;5.80;82.20
71177;DHT22;58877;51.992;4.504;2024-01-06T05:58:52;5.71;81.98
71177;DHT22;58877;51.992;4.504;2024-01-06T06:01:19;5.84;82.06
71177;DHT22;58877;51.992;4.504;2024-01-06T06:03:46;5.88;81.52
71177;DHT22;58877;51.992;4.504;2024-01-06T06:06:12;5.90;80.77
71177;DHT22;58877;51.992;4.504;2024-01-06T06:08:42;5.86;80.89
71177;DHT22;58877;51.992;4.504;2024-01-06T06:11:08;5.73;80.58
71177;DHT22;58877;51.992;4.504;2024-01-06T06:13:43;5.75;80.56
71177;DHT22;58877;51.992;4.504;2024-01-06T06:16:09;5.78;80.38
71177;DHT22;58877;51.992;4.504;2024-01-06T06:18:35;5.94;80.43
71177;DHT22;58877;51.992;4.504;2024-01-06T06:21:01;5.83;80.21
71177;DHT22;58877;51.992;4.504;2024-01-06T06:23:31;5.87;80.36
71177;DHT22;58877;51.992;4.504;2024-01-06T06:25:57;5.95;80.26
71177;DHT22;58877;51.992;4.504;2024-01-06T06:28:25;5.83;79.90
71177;DHT22;58877;51.992;4.504;2024-01-06T06:30:53;5.88;80.06
71177;DHT22;58877;51.992;4.504;2024-01-06T06:33:19;5.81;79.92
71177;DHT22;58877;51.992;4.504;2024-01-06T06:35:45;5.88;79.97
71177;DHT22;58877;51.992;4.504;2024-01-06T06:38:10;5.80;80.26
71177;DHT22;58877;51.992;4.504;2024-01-06T06:40:36;5.75;80.52
71177;DHT22;58877;51.992;4.504;2024-01-06T06:43:02;5.73;80.41
71177;DHT22;58877;51.992;4.504;2024-01-06T06:45:28;5.77;80.64
71177;DHT22;58877;51.992;4.504;2024-01-06T06:47:54;5.81;79.90
71177;DHT22;58877;51.992;4.504;2024-01-06T06:50:20;5.77;80.28
71177;DHT22;58877;51.992;4.504;2024-01-06T06:52:48;5.70;80.81
71177;DHT22;58877;51.992;4.504;2024-01-06T06:55:14;5.67;81.16
71177;DHT22;58877;51.992;4.504;2024-01-06T06:57:39;5.63;81.65
71177;DHT22;58877;51.992;4.504;2024-01-06T07:00:05;5.73;81.72
71177;DHT22;58877;51.992;4.504;2024-01-06T07:02:37;5.70;82.01
71177;DHT22;58877;51.992;4.504;2024-01-06T07:05:03;5.60;81.86
71177;DHT22;58877;51.992;4.504;2024-01-06T07:07:33;5.63;81.90
71177;DHT22;58877;51.992;4.504;2024-01-06T07:10:04;5.60;81.96
71177;DHT22;58877;51.992;4.504;2024-01-06T07:12:31;5.58;82.18
71177;DHT22;58877;51.992;4.504;2024-01-06T07:14:57;5.58;81.83
71177;DHT22;58877;51.992;4.504;2024-01-06T07:17:26;5.64;82.04
71177;DHT22;58877;51.992;4.504;2024-01-06T07:19:52;5.54;81.80
71177;DHT22;58877;51.992;4.504;2024-01-06T07:22:19;5.71;81.79
71177;DHT22;58877;51.992;4.504;2024-01-06T07:24:45;5.58;81.74
71177;DHT22;58877;51.992;4.504;2024-01-06T07:27:10;5.70;81.82
71177;DHT22;58877;51.992;4.504;2024-01-06T07:29:36;5.61;81.86
71177;DHT22;58877;51.992;4.504;2024-01-06T07:32:03;5.63;81.91
71177;DHT22;58877;51.992;4.504;2024-01-06T07:34:29;5.56;82.12
71177;DHT22;58877;51.992;4.504;2024-01-06T07:36:54;5.58;81.95
71177;DHT22;58877;51.992;4.504;2024-01-06T07:39:20;5.64;82.23
71177;DHT22;58877;51.992;4.504;2024-01-06T07:41:46;5.54;82.05
71177;DHT22;58877;51.992;4.504;2024-01-06T07:44:15;5.53;81.99
71177;DHT22;58877;51.992;4.504;2024-01-06T07:46:42;5.48;82.21
71177;DHT22;58877;51.992;4.504;2024-01-06T07:49:08;5.53;81.91
71177;DHT22;58877;51.992;4.504;2024-01-06T07:51:34;5.56;81.95
71177;DHT22;58877;51.992;4.504;2024-01-06T07:54:01;5.66;81.64
71177;DHT22;58877;51.992;4.504;2024-01-06T07:56:27;5.66;81.06
71177;DHT22;58877;51.992;4.504;2024-01-06T07:58:52;5.61;81.93
71177;DHT22;58877;51.992;4.504;2024-01-06T08:01:18;5.57;81.40
71177;DHT22;58877;51.992;4.504;2024-01-06T08:03:44;5.64;81.27
71177;DHT22;58877;51.992;4.504;2024-01-06T08:06:10;5.64;81.02
71177;DHT22;58877;51.992;4.504;2024-01-06T08:08:36;5.73;80.66
71177;DHT22;58877;51.992;4.504;2024-01-06T08:11:02;5.60;80.07
71177;DHT22;58877;51.992;4.504;2024-01-06T08:13:31;5.48;79.96
71177;DHT22;58877;51.992;4.504;2024-01-06T08:15:57;5.64;80.14
71177;DHT22;58877;51.992;4.504;2024-01-06T08:18:23;5.63;79.81
71177;DHT22;58877;51.992;4.504;2024-01-06T08:20:49;5.74;80.27
71177;DHT22;58877;51.992;4.504;2024-01-06T08:23:14;5.75;79.74
71177;DHT22;58877;51.992;4.504;2024-01-06T08:25:42;5.86;80.00
71177;DHT22;58877;51.992;4.504;2024-01-06T08:28:07;5.81;80.51
71177;DHT22;58877;51.992;4.504;2024-01-06T08:30:33;5.75;80.15
71177;DHT22;58877;51.992;4.504;2024-01-06T08:32:58;5.67;79.88
71177;DHT22;58877;51.992;4.504;2024-01-06T08:35:28;5.70;80.26
71177;DHT22;58877;51.992;4.504;2024-01-06T08:37:54;5.67;80.10
71177;DHT22;58877;51.992;4.504;2024-01-06T08:40:20;5.83;80.05
71177;DHT22;58877;51.992;4.504;2024-01-06T08:42:46;5.80;80.11
71177;DHT22;58877;51.992;4.504;2024-01-06T08:45:12;5.78;80.48
71177;DHT22;58877;51.992;4.504;2024-01-06T08:47:41;5.83;80.12
71177;DHT22;58877;51.992;4.504;2024-01-06T08:50:07;5.80;80.38
71177;DHT22;58877;51.992;4.504;2024-01-06T08:52:33;5.64;80.88
71177;DHT22;58877;51.992;4.504;2024-01-06T08:55:02;5.75;81.19
71177;DHT22;58877;51.992;4.504;2024-01-06T08:57:28;5.84;80.85
71177;DHT22;58877;51.992;4.504;2024-01-06T08:59:54;5.73;80.85
71177;DHT22;58877;51.992;4.504;2024-01-06T09:02:20;5.71;80.54
71177;DHT22;58877;51.992;4.504;2024-01-06T09:04:46;5.61;80.78
71177;DHT22;58877;51.992;4.504;2024-01-06T09:07:12;5.63;80.78
71177;DHT22;58877;51.992;4.504;2024-01-06T09:09:38;5.63;80.66
71177;DHT22;58877;51.992;4.504;2024-01-06T09:12:04;5.67;80.58
71177;DHT22;58877;51.992;4.504;2024-01-06T09:14:29;5.63;80.66
71177;DHT22;58877;51.992;4.504;2024-01-06T09:16:55;5.61;80.72
71177;DHT22;58877;51.992;4.504;2024-01-06T09:19:21;5.53;80.67
71177;DHT22;58877;51.992;4.504;2024-01-06T09:21:47;5.44;80.94
71177;DHT22;58877;51.992;4.504;2024-01-06T09:24:12;5.44;80.85
71177;DHT22;58877;51.992;4.504;2024-01-06T09:26:38;5.47;80.77
71177;DHT22;58877;51.992;4.504;2024-01-06T09:29:04;5.44;80.80
71177;DHT22;58877;51.992;4.504;2024-01-06T09:31:33;5.54;80.93
71177;DHT22;58877;51.992;4.504;2024-01-06T09:34:02;5.50;81.03
71177;DHT22;58877;51.992;4.504;2024-01-06T09:36:30;5.57;80.93
71177;DHT22;58877;51.992;4.504;2024-01-06T09:38:56;5.64;80.24
71177;DHT22;58877;51.992;4.504;2024-01-06T09:41:22;5.61;80.45
71177;DHT22;58877;51.992;4.504;2024-01-06T09:43:50;5.84;80.66
71177;DHT22;58877;51.992;4.504;2024-01-06T09:46:27;5.97;79.87
71177;DHT22;58877;51.992;4.504;2024-01-06T09:48:55;6.10;79.47
71177;DHT22;58877;51.992;4.504;2024-01-06T09:51:22;5.88;78.89
71177;DHT22;58877;51.992;4.504;2024-01-06T09:53:56;5.90;79.66
71177;DHT22;58877;51.992;4.504;2024-01-06T09:56:28;5.84;79.81
71177;DHT22;58877;51.992;4.504;2024-01-06T09:58:55;5.83;79.84
71177;DHT22;58877;51.992;4.504;2024-01-06T10:01:21;5.90;79.67
71177;DHT22;58877;51.992;4.504;2024-01-06T10:03:47;6.02;79.71
71177;DHT22;58877;51.992;4.504;2024-01-06T10:06:17;6.17;79.26
71177;DHT22;58877;51.992;4.504;2024-01-06T10:08:46;6.01;79.21
71177;DHT22;58877;51.992;4.504;2024-01-06T10:11:13;6.04;79.15
71177;DHT22;58877;51.992;4.504;2024-01-06T10:13:39;6.02;79.24
71177;DHT22;58877;51.992;4.504;2024-01-06T10:16:05;6.04;79.27
71177;DHT22;58877;51.992;4.504;2024-01-06T10:18:31;6.01;79.07
71177;DHT22;58877;51.992;4.504;2024-01-06T10:20:58;5.97;79.09
71177;DHT22;58877;51.992;4.504;2024-01-06T10:23:26;5.84;79.15
71177;DHT22;58877;51.992;4.504;2024-01-06T10:25:54;5.78;79.57
71177;DHT22;58877;51.992;4.504;2024-01-06T10:28:23;5.93;79.62
71177;DHT22;58877;51.992;4.504;2024-01-06T10:30:53;5.83;79.11
71177;DHT22;58877;51.992;4.504;2024-01-06T10:33:23;5.75;79.31
71177;DHT22;58877;51.992;4.504;2024-01-06T10:35:49;5.68;79.41
71177;DHT22;58877;51.992;4.504;2024-01-06T10:38:15;5.81;79.37
71177;DHT22;58877;51.992;4.504;2024-01-06T10:41:01;5.70;79.36
71177;DHT22;58877;51.992;4.504;2024-01-06T10:43:33;5.80;79.38
71177;DHT22;58877;51.992;4.504;2024-01-06T10:46:06;5.93;79.29
71177;DHT22;58877;51.992;4.504;2024-01-06T10:48:37;5.73;79.05
71177;DHT22;58877;51.992;4.504;2024-01-06T10:51:13;5.67;79.59
71177;DHT22;58877;51.992;4.504;2024-01-06T10:53:44;5.64;79.49
71177;DHT22;58877;51.992;4.504;2024-01-06T10:56:10;5.66;79.72
71177;DHT22;58877;51.992;4.504;2024-01-06T10:58:37;5.71;79.55
71177;DHT22;58877;51.992;4.504;2024-01-06T11:01:11;5.71;79.24
71177;DHT22;58877;51.992;4.504;2024-01-06T11:03:38;5.66;79.27
71177;DHT22;58877;51.992;4.504;2024-01-06T11:06:08;5.68;79.42
71177;DHT22;58877;51.992;4.504;2024-01-06T11:08:46;5.61;79.52
71177;DHT22;58877;51.992;4.504;2024-01-06T11:11:17;5.64;79.23
71177;DHT22;58877;51.992;4.504;2024-01-06T11:13:46;5.75;79.36
71177;DHT22;58877;51.992;4.504;2024-01-06T11:16:35;5.87;79.30
71177;DHT22;58877;51.992;4.504;2024-01-06T11:19:01;5.91;78.69
71177;DHT22;58877;51.992;4.504;2024-01-06T11:21:27;5.78;79.07
71177;DHT22;58877;51.992;4.504;2024-01-06T11:26:32;5.78;78.59
71177;DHT22;58877;51.992;4.504;2024-01-06T11:29:00;5.91;78.87
71177;DHT22;58877;51.992;4.504;2024-01-06T11:31:31;5.87;78.25
71177;DHT22;58877;51.992;4.504;2024-01-06T11:33:57;5.78;77.52
71177;DHT22;58877;51.992;4.504;2024-01-06T11:36:37;5.70;78.16
71177;DHT22;58877;51.992;4.504;2024-01-06T11:39:05;5.73;78.47
71177;DHT22;58877;51.992;4.504;2024-01-06T11:41:51;5.84;78.29
71177;DHT22;58877;51.992;4.504;2024-01-06T11:44:23;5.81;77.71
71177;DHT22;58877;51.992;4.504;2024-01-06T11:46:56;5.87;77.94
71177;DHT22;58877;51.992;4.504;2024-01-06T11:49:26;5.88;77.81
71177;DHT22;58877;51.992;4.504;2024-01-06T11:51:59;5.98;77.80
71177;DHT22;58877;51.992;4.504;2024-01-06T11:54:25;5.95;77.61
71177;DHT22;58877;51.992;4.504;2024-01-06T11:57:15;5.95;78.09
71177;DHT22;58877;51.992;4.504;2024-01-06T12:00:08;5.88;77.46
71177;DHT22;58877;51.992;4.504;2024-01-06T12:06:48;5.90;77.38
71177;DHT22;58877;51.992;4.504;2024-01-06T12:10:06;5.95;77.45
71177;DHT22;58877;51.992;4.504;2024-01-06T12:13:13;5.93;76.83
71177;DHT22;58877;51.992;4.504;2024-01-06T12:19:47;5.80;76.17
71177;DHT22;58877;51.992;4.504;2024-01-06T12:22:49;5.90;76.13
71177;DHT22;58877;51.992;4.504;2024-01-06T12:28:29;5.98;75.87
71177;DHT22;58877;51.992;4.504;2024-01-06T12:31:20;6.02;76.28
71177;DHT22;58877;51.992;4.504;2024-01-06T12:44:17;6.08;76.49
71177;DHT22;58877;51.992;4.504;2024-01-06T12:47:04;6.11;76.95
71177;DHT22;58877;51.992;4.504;2024-01-06T12:50:19;6.18;76.60
71177;DHT22;58877;51.992;4.504;2024-01-06T12:53:06;6.17;76.92
71177;DHT22;58877;51.992;4.504;2024-01-06T12:58:29;6.45;76.46
71177;DHT22;58877;51.992;4.504;2024-01-06T13:01:22;6.25;76.32
71177;DHT22;58877;51.992;4.504;2024-01-06T13:03:50;6.07;77.18
71177;DHT22;58877;51.992;4.504;2024-01-06T13:06:30;6.02;77.65
71177;DHT22;58877;51.992;4.504;2024-01-06T13:09:18;5.97;77.94
71177;DHT22;58877;51.992;4.504;2024-01-06T13:12:06;5.93;77.53
71177;DHT22;58877;51.992;4.504;2024-01-06T13:15:07;5.84;77.43
71177;DHT22;58877;51.992;4.504;2024-01-06T13:17:48;5.80;77.28
71177;DHT22;58877;51.992;4.504;2024-01-06T13:20:22;5.81;76.91
71177;DHT22;58877;51.992;4.504;2024-01-06T13:23:14;5.90;77.39
71177;DHT22;58877;51.992;4.504;2024-01-06T13:26:04;5.97;77.45
71177;DHT22;58877;51.992;4.504;2024-01-06T13:32:08;5.98;76.77
71177;DHT22;58877;51.992;4.504;2024-01-06T13:34:36;5.87;76.10
71177;DHT22;58877;51.992;4.504;2024-01-06T13:37:03;5.84;76.42
71177;DHT22;58877;51.992;4.504;2024-01-06T13:39:30;5.94;76.32
71177;DHT22;58877;51.992;4.504;2024-01-06T13:42:14;5.83;75.28
71177;DHT22;58877;51.992;4.504;2024-01-06T13:44:50;5.74;75.45
71177;DHT22;58877;51.992;4.504;2024-01-06T13:47:15;5.70;75.60
71177;DHT22;58877;51.992;4.504;2024-01-06T13:49:41;5.78;76.24
71177;DHT22;58877;51.992;4.504;2024-01-06T13:52:08;5.80;76.06
71177;DHT22;58877;51.992;4.504;2024-01-06T13:54:35;5.81;76.33
71177;DHT22;58877;51.992;4.504;2024-01-06T13:57:07;5.93;76.09
71177;DHT22;58877;51.992;4.504;2024-01-06T13:59:32;5.93;75.85
71177;DHT22;58877;51.992;4.504;2024-01-06T14:01:58;5.80;75.43
71177;DHT22;58877;51.992;4.504;2024-01-06T14:04:24;5.83;76.02
71177;DHT22;58877;51.992;4.504;2024-01-06T14:06:50;5.83;76.40
71177;DHT22;58877;51.992;4.504;2024-01-06T14:09:21;5.83;76.61
71177;DHT22;58877;51.992;4.504;2024-01-06T14:11:47;5.95;76.63
71177;DHT22;58877;51.992;4.504;2024-01-06T14:14:13;6.04;76.48
71177;DHT22;58877;51.992;4.504;2024-01-06T14:16:39;5.97;76.86
71177;DHT22;58877;51.992;4.504;2024-01-06T14:19:04;5.74;77.49
71177;DHT22;58877;51.992;4.504;2024-01-06T14:21:31;5.70;77.96
71177;DHT22;58877;51.992;4.504;2024-01-06T14:23:56;5.73;78.29
71177;DHT22;58877;51.992;4.504;2024-01-06T14:26:22;5.81;78.19
71177;DHT22;58877;51.992;4.504;2024-01-06T14:28:49;5.84;78.46
71177;DHT22;58877;51.992;4.504;2024-01-06T14:31:15;6.00;78.46
71177;DHT22;58877;51.992;4.504;2024-01-06T14:33:44;5.95;77.89
71177;DHT22;58877;51.992;4.504;2024-01-06T14:36:09;5.98;78.08
71177;DHT22;58877;51.992;4.504;2024-01-06T14:38:35;6.07;78.13
71177;DHT22;58877;51.992;4.504;2024-01-06T14:41:01;6.01;77.54
71177;DHT22;58877;51.992;4.504;2024-01-06T14:43:26;5.84;78.00
71177;DHT22;58877;51.992;4.504;2024-01-06T14:45:52;5.90;78.59
71177;DHT22;58877;51.992;4.504;2024-01-06T14:48:18;5.95;78.36
71177;DHT22;58877;51.992;4.504;2024-01-06T14:50:43;5.86;78.41
71177;DHT22;58877;51.992;4.504;2024-01-06T14:53:13;5.77;78.39
71177;DHT22;58877;51.992;4.504;2024-01-06T14:55:38;5.83;78.52
71177;DHT22;58877;51.992;4.504;2024-01-06T14:58:05;5.78;78.88
71177;DHT22;58877;51.992;4.504;2024-01-06T15:00:31;5.93;78.77
71177;DHT22;58877;51.992;4.504;2024-01-06T15:02:56;5.84;78.27
71177;DHT22;58877;51.992;4.504;2024-01-06T15:05:23;5.87;78.15
71177;DHT22;58877;51.992;4.504;2024-01-06T15:07:51;5.90;78.12
71177;DHT22;58877;51.992;4.504;2024-01-06T15:10:16;5.87;77.52
71177;DHT22;58877;51.992;4.504;2024-01-06T15:12:42;5.83;77.87
71177;DHT22;58877;51.992;4.504;2024-01-06T15:15:08;5.75;78.12
71177;DHT22;58877;51.992;4.504;2024-01-06T15:17:34;5.77;78.26
71177;DHT22;58877;51.992;4.504;2024-01-06T15:20:00;5.75;78.08
71177;DHT22;58877;51.992;4.504;2024-01-06T15:22:27;5.77;78.23
71177;DHT22;58877;51.992;4.504;2024-01-06T15:24:53;5.77;77.99
71177;DHT22;58877;51.992;4.504;2024-01-06T15:27:18;5.73;78.10
71177;DHT22;58877;51.992;4.504;2024-01-06T15:29:44;5.58;77.82
71177;DHT22;58877;51.992;4.504;2024-01-06T15:32:10;5.47;77.99
71177;DHT22;58877;51.992;4.504;2024-01-06T15:34:35;5.50;78.41
71177;DHT22;58877;51.992;4.504;2024-01-06T15:37:01;5.48;78.39
71177;DHT22;58877;51.992;4.504;2024-01-06T15:39:27;5.35;78.46
71177;DHT22;58877;51.992;4.504;2024-01-06T15:41:52;5.33;78.63
71177;DHT22;58877;51.992;4.504;2024-01-06T15:44:18;5.36;79.11
71177;DHT22;58877;51.992;4.504;2024-01-06T15:46:43;5.33;79.22
71177;DHT22;58877;51.992;4.504;2024-01-06T15:49:09;5.26;79.40
71177;DHT22;58877;51.992;4.504;2024-01-06T15:51:35;5.37;79.38
71177;DHT22;58877;51.992;4.504;2024-01-06T15:54:01;5.42;78.86
71177;DHT22;58877;51.992;4.504;2024-01-06T15:56:26;5.33;78.68
71177;DHT22;58877;51.992;4.504;2024-01-06T15:58:52;5.47;78.50
71177;DHT22;58877;51.992;4.504;2024-01-06T16:01:20;5.44;78.40
71177;DHT22;58877;51.992;4.504;2024-01-06T16:03:46;5.39;78.80
71177;DHT22;58877;51.992;4.504;2024-01-06T16:06:12;5.40;79.06
71177;DHT22;58877;51.992;4.504;2024-01-06T16:08:37;5.35;78.85
71177;DHT22;58877;51.992;4.504;2024-01-06T16:11:06;5.43;78.90
71177;DHT22;58877;51.992;4.504;2024-01-06T16:13:32;5.43;78.47
71177;DHT22;58877;51.992;4.504;2024-01-06T16:15:58;5.40;78.25
71177;DHT22;58877;51.992;4.504;2024-01-06T16:18:23;5.37;78.19
71177;DHT22;58877;51.992;4.504;2024-01-06T16:20:49;5.30;77.82
71177;DHT22;58877;51.992;4.504;2024-01-06T16:23:15;5.32;77.81